createdAt,value
2019-05-10T00:00:31.905Z,90.30
2019-05-10T00:03:22.716Z,90.18
2019-05-10T00:06:12.386Z,89.57
2019-05-10T00:08:45.939Z,90.58
2019-05-10T00:11:30.447Z,90.43
2019-05-10T00:14:08.379Z,90.59
2019-05-10T00:16:41.234Z,90.82
2019-05-10T00:19:12.779Z,90.42
2019-05-10T00:21:44.745Z,90.39
2019-05-10T00:24:17.735Z,89.76
2019-05-10T00:26:49.488Z,90.48
2019-05-10T00:29:21.036Z,89.58
2019-05-10T00:31:52.697Z,90.06
2019-05-10T00:34:24.865Z,89.48
2019-05-10T00:36:56.511Z,89.52
2019-05-10T00:39:28.068Z,90.12
2019-05-10T00:41:59.729Z,89.89
2019-05-10T00:44:31.685Z,89.83
2019-05-10T00:47:03.134Z,90.62
2019-05-10T00:49:34.890Z,90.08
2019-05-10T00:52:06.652Z,90.17
2019-05-10T00:54:39.328Z,89.77
2019-05-10T00:57:11.088Z,89.97
2019-05-10T00:59:42.642Z,90.32
2019-05-10T01:02:14.633Z,89.70
2019-05-10T01:04:47.276Z,89.90
2019-05-10T01:07:18.730Z,90.98
2019-05-10T01:09:49.495Z,91.20
2019-05-10T01:12:20.809Z,90.57
2019-05-10T01:14:52.258Z,90.33
2019-05-10T01:17:23.605Z,89.26
2019-05-10T01:19:56.229Z,89.35
2019-05-10T01:22:27.711Z,90.10
2019-05-10T01:24:59.600Z,90.62
2019-05-10T01:27:31.453Z,90.93
2019-05-10T01:30:03.323Z,90.37
2019-05-10T01:32:35.115Z,90.27
2019-05-10T01:35:07.550Z,90.54
2019-05-10T01:37:39.202Z,90.41
2019-05-10T01:40:11.635Z,90.66
2019-05-10T01:42:43.026Z,89.99
2019-05-10T01:45:16.176Z,91.04
2019-05-10T01:47:47.669Z,91.03
2019-05-10T01:50:19.536Z,90.63
2019-05-10T01:52:52.204Z,91.41
2019-05-10T01:55:23.565Z,91.33
2019-05-10T01:57:55.325Z,91.41
2019-05-10T02:00:27.274Z,90.54
2019-05-10T02:02:59.163Z,90.53
2019-05-10T02:05:30.804Z,90.46
2019-05-10T02:08:02.438Z,91.33
2019-05-10T02:10:34.401Z,91.68
2019-05-10T02:13:05.854Z,90.99
2019-05-10T02:15:37.708Z,90.93
2019-05-10T02:18:09.466Z,91.50
2019-05-10T02:20:41.123Z,91.58
2019-05-10T02:23:12.779Z,91.08
2019-05-10T02:25:45.564Z,91.68
2019-05-10T02:28:17.215Z,91.89
2019-05-10T02:30:49.276Z,92.27
2019-05-10T02:33:21.141Z,91.47
2019-05-10T02:35:52.800Z,91.47
2019-05-10T02:38:24.462Z,91.92
2019-05-10T02:40:56.410Z,92.43
2019-05-10T02:43:28.093Z,92.24
2019-05-10T02:45:59.520Z,91.79
2019-05-10T02:48:31.270Z,92.00
2019-05-10T02:51:02.725Z,91.90
2019-05-10T02:53:35.026Z,91.93
2019-05-10T02:56:06.545Z,92.37
2019-05-10T02:58:39.110Z,92.71
2019-05-10T03:01:14.366Z,91.99
2019-05-10T03:03:50.111Z,91.80
2019-05-10T03:06:24.843Z,92.13
2019-05-10T03:08:56.945Z,92.16
2019-05-10T03:11:31.630Z,91.87
2019-05-10T03:14:06.049Z,91.55
2019-05-10T03:16:39.813Z,91.02
2019-05-10T03:19:12.780Z,89.72
2019-05-10T03:21:46.241Z,89.44
2019-05-10T03:24:18.200Z,89.34
2019-05-10T03:26:51.501Z,89.63
2019-05-10T03:29:23.665Z,89.52
2019-05-10T03:31:55.534Z,90.11
2019-05-10T03:34:27.075Z,90.19
2019-05-10T03:36:58.729Z,90.27
2019-05-10T03:39:30.595Z,90.02
2019-05-10T03:42:02.651Z,89.85
2019-05-10T03:44:34.616Z,89.73
2019-05-10T03:47:06.473Z,89.20
2019-05-10T03:49:37.339Z,88.38
2019-05-10T03:52:08.793Z,88.26
2019-05-10T03:54:41.330Z,88.37
2019-05-10T03:57:14.627Z,89.17
2019-05-10T03:59:48.025Z,88.76
2019-05-10T04:02:19.886Z,88.80
2019-05-10T04:04:51.746Z,88.99
2019-05-10T04:07:23.605Z,89.18
2019-05-10T04:09:55.266Z,88.56
2019-05-10T04:12:27.144Z,88.70
2019-05-10T04:14:59.098Z,88.28
2019-05-10T04:17:30.833Z,88.57
2019-05-10T04:20:02.602Z,87.91
2019-05-10T04:22:34.555Z,86.69
2019-05-10T04:25:06.321Z,87.12
2019-05-10T04:27:37.865Z,87.15
2019-05-10T04:30:10.480Z,86.06
2019-05-10T04:32:42.917Z,84.99
2019-05-10T04:35:14.889Z,85.84
2019-05-10T04:37:46.848Z,86.43
2019-05-10T04:40:18.709Z,84.86
2019-05-10T04:42:51.389Z,85.26
2019-05-10T04:45:23.033Z,85.68
2019-05-10T04:47:54.601Z,84.92
2019-05-10T04:50:26.595Z,85.09
2019-05-10T04:52:58.726Z,85.55
2019-05-10T04:55:30.275Z,84.54
2019-05-10T04:58:01.033Z,83.95
2019-05-10T05:00:32.380Z,85.36
2019-05-10T05:03:04.520Z,85.49
2019-05-10T05:05:35.973Z,85.10
2019-05-10T05:08:08.037Z,83.82
2019-05-10T05:10:39.481Z,84.92
2019-05-10T05:13:10.454Z,84.18
2019-05-10T05:15:41.564Z,82.93
2019-05-10T05:18:13.953Z,83.19
2019-05-10T05:20:45.482Z,82.22
2019-05-10T05:23:17.244Z,81.69
2019-05-10T05:25:48.690Z,80.95
2019-05-10T05:28:23.140Z,82.21
2019-05-10T05:30:53.753Z,80.80
2019-05-10T05:33:25.614Z,79.27
2019-05-10T05:35:57.172Z,78.03
2019-05-10T05:38:28.939Z,78.22
2019-05-10T05:41:00.571Z,77.47
2019-05-10T05:43:32.427Z,77.75
2019-05-10T05:46:04.292Z,77.65
2019-05-10T05:48:40.426Z,78.62
2019-05-10T05:51:09.649Z,77.93
2019-05-10T05:53:42.890Z,79.46
2019-05-10T05:56:14.860Z,78.80
2019-05-10T05:58:47.079Z,78.16
2019-05-10T06:01:26.152Z,75.36
2019-05-10T06:03:53.656Z,75.84
2019-05-10T06:06:25.508Z,75.79
2019-05-10T06:08:59.611Z,74.19
2019-05-10T06:11:35.981Z,73.05
2019-05-10T06:14:10.925Z,73.60
2019-05-10T06:16:39.101Z,73.42
2019-05-10T06:19:09.832Z,75.04
2019-05-10T06:21:41.082Z,76.21
2019-05-10T06:24:14.000Z,76.89
2019-05-10T06:26:45.820Z,75.04
2019-05-10T06:29:19.720Z,75.55
2019-05-10T06:31:50.867Z,73.90
2019-05-10T06:34:22.331Z,74.21
2019-05-10T06:36:54.178Z,69.65
2019-05-10T06:39:25.937Z,71.79
2019-05-10T06:41:58.437Z,71.67
2019-05-10T06:44:31.289Z,70.54
2019-05-10T06:47:08.105Z,70.21
2019-05-10T06:49:41.695Z,71.90
2019-05-10T06:52:10.285Z,70.34
2019-05-10T06:54:42.112Z,70.88
2019-05-10T06:57:17.464Z,69.39
2019-05-10T06:59:48.188Z,67.66
2019-05-10T07:02:26.015Z,68.06
2019-05-10T07:04:53.651Z,68.92
2019-05-10T07:07:42.605Z,70.38
2019-05-10T07:10:08.373Z,71.11
2019-05-10T07:12:32.067Z,71.68
2019-05-10T07:15:05.510Z,70.18
2019-05-10T07:17:43.636Z,66.54
2019-05-10T07:20:10.946Z,67.42
2019-05-10T07:22:42.814Z,66.81
2019-05-10T07:25:14.468Z,65.63
2019-05-10T07:27:49.990Z,67.46
2019-05-10T07:30:31.289Z,67.03
2019-05-10T07:33:02.870Z,66.64
2019-05-10T07:35:37.033Z,65.26
2019-05-10T07:38:08.404Z,68.17
2019-05-10T07:40:39.861Z,69.22
2019-05-10T07:43:11.815Z,68.88
2019-05-10T07:45:43.160Z,69.25
2019-05-10T07:48:14.921Z,67.90
2019-05-10T07:50:49.391Z,67.88
2019-05-10T07:53:23.085Z,67.31
2019-05-10T07:55:52.857Z,66.79
2019-05-10T07:58:24.713Z,66.57
2019-05-10T08:00:56.792Z,65.90
2019-05-10T08:03:29.844Z,64.80
2019-05-10T08:06:02.189Z,65.44
2019-05-10T08:08:33.796Z,64.35
2019-05-10T08:11:05.553Z,65.49
2019-05-10T08:13:39.356Z,65.38
2019-05-10T08:16:18.911Z,65.36
2019-05-10T08:18:44.001Z,62.99
2019-05-10T08:21:23.797Z,65.08
2019-05-10T08:23:48.943Z,63.60
2019-05-10T08:26:24.618Z,64.48
2019-05-10T08:28:53.685Z,61.21
2019-05-10T08:31:26.389Z,60.17
2019-05-10T08:33:59.269Z,57.11
2019-05-10T08:36:32.307Z,55.50
2019-05-10T08:39:10.636Z,54.67
2019-05-10T08:41:39.727Z,58.02
2019-05-10T08:44:18.792Z,58.57
2019-05-10T08:46:44.453Z,57.24
2019-05-10T08:49:22.095Z,55.52
2019-05-10T08:51:52.075Z,52.40
2019-05-10T08:54:26.238Z,51.45
2019-05-10T08:57:01.080Z,52.30
2019-05-10T08:59:30.829Z,50.82
2019-05-10T09:02:02.331Z,51.71
2019-05-10T09:04:42.230Z,53.40
2019-05-10T09:07:07.046Z,52.63
2019-05-10T09:09:45.559Z,54.59
2019-05-10T09:12:12.285Z,53.63
2019-05-10T09:14:44.129Z,53.78
2019-05-10T09:17:23.761Z,52.54
2019-05-10T09:19:48.657Z,52.46
2019-05-10T09:22:25.965Z,50.67
2019-05-10T09:24:53.301Z,49.13
2019-05-10T09:27:29.192Z,50.23
2019-05-10T09:29:56.727Z,52.57
2019-05-10T09:32:29.000Z,51.35
2019-05-10T09:35:07.871Z,49.43
2019-05-10T09:37:34.429Z,49.64
2019-05-10T09:40:10.044Z,51.88
2019-05-10T09:42:43.582Z,50.56
2019-05-10T09:45:14.468Z,51.43
2019-05-10T09:47:46.090Z,52.29
2019-05-10T09:50:17.913Z,50.41
2019-05-10T09:52:49.848Z,49.31
2019-05-10T09:55:21.283Z,49.54
2019-05-10T09:57:54.272Z,50.02
2019-05-10T10:00:34.002Z,50.27
2019-05-10T10:03:08.303Z,53.18
2019-05-10T10:05:40.334Z,52.25
2019-05-10T10:08:12.054Z,51.13
2019-05-10T10:10:43.397Z,51.75
2019-05-10T10:13:25.536Z,51.14
2019-05-10T10:15:52.033Z,51.89
2019-05-10T10:18:25.373Z,51.36
2019-05-10T10:20:55.554Z,52.43
2019-05-10T10:23:30.697Z,52.96
2019-05-10T10:26:00.402Z,51.77
2019-05-10T10:28:31.943Z,49.87
2019-05-10T10:31:05.467Z,49.64
2019-05-10T10:33:37.970Z,51.59
2019-05-10T10:36:10.693Z,50.08
2019-05-10T10:38:45.456Z,50.31
2019-05-10T10:41:19.181Z,50.76
2019-05-10T10:43:49.048Z,50.78
2019-05-10T10:46:20.502Z,51.02
2019-05-10T10:48:52.253Z,49.74
2019-05-10T10:51:26.654Z,49.05
2019-05-10T10:53:58.276Z,48.79
2019-05-10T10:56:29.981Z,48.86
2019-05-10T10:59:01.663Z,48.54
2019-05-10T11:01:47.266Z,49.56
2019-05-10T11:04:08.251Z,51.26
2019-05-10T11:06:40.599Z,51.95
2019-05-10T11:09:12.154Z,52.06
2019-05-10T11:11:44.900Z,51.65
2019-05-10T11:14:17.614Z,52.33
2019-05-10T11:16:52.831Z,51.98
2019-05-10T11:19:22.437Z,52.39
2019-05-10T11:21:54.417Z,52.68
2019-05-10T11:24:26.005Z,51.59
2019-05-10T11:26:56.630Z,51.92
2019-05-10T11:29:28.197Z,52.68
2019-05-10T11:32:15.426Z,51.09
2019-05-10T11:34:37.329Z,50.68
2019-05-10T11:37:07.525Z,51.99
2019-05-10T11:39:45.323Z,52.61
2019-05-10T11:42:15.395Z,52.19
2019-05-10T11:44:50.277Z,50.50
2019-05-10T11:47:23.974Z,50.72
2019-05-10T11:49:51.834Z,50.56
2019-05-10T11:52:29.097Z,50.73
2019-05-10T11:54:57.192Z,48.56
2019-05-10T11:57:32.076Z,48.64
2019-05-10T12:00:03.585Z,47.22
2019-05-10T12:07:45.829Z,49.78
2019-05-10T12:10:21.140Z,48.16
2019-05-10T12:15:25.347Z,49.73
2019-05-10T12:23:03.850Z,50.03
2019-05-10T12:25:51.461Z,50.85
2019-05-10T12:26:06.388Z,49.72
2019-05-10T12:26:08.471Z,51.57
2019-05-10T12:26:18.022Z,50.40
2019-05-10T12:26:18.180Z,48.50
2019-05-10T12:26:21.451Z,50.59
2019-05-10T12:28:08.675Z,51.34
2019-05-10T12:30:41.462Z,49.97
2019-05-10T12:33:23.949Z,49.95
2019-05-10T12:35:47.487Z,50.41
2019-05-10T12:38:23.545Z,50.33
2019-05-10T12:40:52.178Z,50.56
2019-05-10T12:43:24.121Z,49.79
2019-05-10T12:45:55.586Z,49.39
2019-05-10T12:48:27.338Z,50.30
2019-05-10T12:51:04.235Z,49.05
2019-05-10T12:53:31.640Z,48.84
2019-05-10T12:56:03.372Z,48.99
2019-05-10T12:58:35.089Z,49.04
2019-05-10T13:01:06.935Z,49.72
2019-05-10T13:03:38.402Z,50.40
2019-05-10T13:06:09.949Z,51.14
2019-05-10T13:08:41.704Z,50.55
2019-05-10T13:11:18.490Z,51.51
2019-05-10T13:13:46.759Z,51.87
2019-05-10T13:16:18.618Z,51.25
2019-05-10T13:18:52.545Z,51.92
2019-05-10T13:21:24.077Z,51.72
2019-05-10T13:23:55.741Z,52.24
2019-05-10T13:26:27.701Z,52.82
2019-05-10T13:29:02.164Z,50.54
2019-05-10T13:31:42.211Z,50.92
2019-05-10T13:34:05.837Z,52.11
2019-05-10T13:36:39.209Z,52.76
2019-05-10T13:39:10.728Z,52.42
2019-05-10T13:41:42.541Z,52.17
2019-05-10T13:44:14.306Z,53.02
2019-05-10T13:46:46.158Z,52.78
2019-05-10T13:49:17.818Z,52.60
2019-05-10T13:51:50.072Z,51.97
2019-05-10T13:54:21.627Z,53.51
2019-05-10T13:56:54.959Z,54.24
2019-05-10T13:59:26.683Z,53.67
2019-05-10T14:01:58.852Z,54.66
2019-05-10T14:04:34.132Z,54.73
2019-05-10T14:07:04.112Z,54.69
2019-05-10T14:09:35.555Z,53.12
2019-05-10T14:12:07.523Z,52.56
2019-05-10T14:14:38.963Z,53.54
2019-05-10T14:17:10.619Z,53.18
2019-05-10T14:19:42.174Z,53.02
2019-05-10T14:22:14.245Z,53.23
2019-05-10T14:24:46.648Z,53.23
2019-05-10T14:27:18.980Z,54.17
2019-05-10T14:29:50.647Z,52.90
2019-05-10T14:32:22.400Z,52.83
2019-05-10T14:34:53.943Z,52.83
2019-05-10T14:37:25.600Z,52.25
2019-05-10T14:39:59.918Z,51.81
2019-05-10T14:42:33.563Z,52.53
2019-05-10T14:45:05.783Z,52.03
2019-05-10T14:47:46.763Z,53.22
2019-05-10T14:50:11.661Z,52.20
2019-05-10T14:52:43.368Z,51.98
2019-05-10T14:55:15.482Z,52.64
2019-05-10T14:57:47.348Z,57.65
2019-05-10T15:00:19.209Z,60.90
2019-05-10T15:02:50.859Z,61.58
2019-05-10T15:05:22.518Z,62.31
2019-05-10T15:07:54.070Z,62.95
2019-05-10T15:10:25.927Z,66.27
2019-05-10T15:12:57.781Z,67.41
2019-05-10T15:15:30.925Z,68.70
2019-05-10T15:18:03.661Z,69.48
2019-05-10T15:20:35.997Z,71.82
2019-05-10T15:23:07.682Z,69.36
2019-05-10T15:25:55.463Z,69.25
2019-05-10T15:28:13.342Z,67.46
2019-05-10T15:30:49.352Z,67.99
2019-05-10T15:33:18.608Z,67.71
2019-05-10T15:35:51.937Z,67.47
2019-05-10T15:38:24.061Z,67.92
2019-05-10T15:40:55.713Z,68.22
2019-05-10T15:43:27.884Z,66.49
2019-05-10T15:45:59.640Z,66.90
2019-05-10T15:48:31.502Z,66.73
2019-05-10T15:51:03.052Z,67.49
2019-05-10T15:53:35.325Z,67.21
2019-05-10T15:56:06.977Z,67.58
2019-05-10T15:58:42.120Z,66.85
2019-05-10T16:01:14.444Z,66.11
2019-05-10T16:03:45.724Z,66.26
2019-05-10T16:06:17.493Z,65.46
2019-05-10T16:08:49.452Z,67.44
2019-05-10T16:11:21.427Z,66.16
2019-05-10T16:13:54.661Z,66.92
2019-05-10T16:16:30.357Z,65.56
2019-05-10T16:18:59.555Z,66.50
2019-05-10T16:21:31.115Z,66.63
2019-05-10T16:24:02.862Z,66.77
2019-05-10T16:26:34.614Z,65.85
2019-05-10T16:29:06.226Z,67.08
2019-05-10T16:31:37.134Z,67.74
2019-05-10T16:34:08.347Z,69.90
2019-05-10T16:36:40.222Z,71.30
2019-05-10T16:39:11.872Z,70.09
2019-05-10T16:41:44.029Z,69.46
2019-05-10T16:44:15.514Z,69.72
2019-05-10T16:46:47.032Z,70.01
2019-05-10T16:49:19.099Z,70.52
2019-05-10T16:51:51.416Z,70.39
2019-05-10T16:54:25.375Z,70.88
2019-05-10T16:57:01.148Z,72.01
2019-05-10T16:59:31.227Z,72.71
2019-05-10T17:02:06.053Z,72.96
2019-05-10T17:04:37.451Z,75.01
2019-05-10T17:07:12.802Z,74.96
2019-05-10T17:09:42.578Z,74.26
2019-05-10T17:12:14.458Z,74.92
2019-05-10T17:14:50.461Z,75.15
2019-05-10T17:17:19.590Z,76.08
2019-05-10T17:19:51.563Z,75.28
2019-05-10T17:22:23.217Z,76.12
2019-05-10T17:24:56.792Z,74.44
2019-05-10T17:27:27.643Z,75.29
2019-05-10T17:29:58.957Z,75.46
2019-05-10T17:32:29.860Z,75.56
2019-05-10T17:35:04.603Z,77.03
2019-05-10T17:37:35.910Z,76.42
2019-05-10T17:40:10.638Z,76.74
2019-05-10T17:42:43.518Z,77.99
2019-05-10T17:45:16.502Z,78.81
2019-05-10T17:47:48.160Z,78.42
2019-05-10T17:50:19.930Z,78.50
2019-05-10T17:52:52.104Z,78.59
2019-05-10T17:55:25.617Z,79.32
2019-05-10T17:57:57.351Z,79.61
2019-05-10T18:00:29.303Z,80.17
2019-05-10T18:03:01.570Z,80.32
2019-05-10T18:05:34.179Z,81.02
2019-05-10T18:08:06.317Z,81.85
2019-05-10T18:10:38.068Z,81.84
2019-05-10T18:13:09.618Z,81.31
2019-05-10T18:15:41.378Z,81.84
2019-05-10T18:18:13.498Z,82.19
2019-05-10T18:20:45.407Z,82.92
2019-05-10T18:23:22.719Z,81.87
2019-05-10T18:25:52.429Z,81.81
2019-05-10T18:28:23.441Z,82.65
2019-05-10T18:30:55.302Z,82.50
2019-05-10T18:33:27.679Z,83.03
2019-05-10T18:35:59.423Z,82.92
2019-05-10T18:38:37.015Z,82.49
2019-05-10T18:41:09.516Z,82.66
2019-05-10T18:43:40.620Z,83.56
2019-05-10T18:46:11.473Z,83.01
2019-05-10T18:48:43.458Z,82.96
2019-05-10T18:51:17.860Z,84.05
2019-05-10T18:53:48.589Z,83.78
2019-05-10T18:56:25.326Z,84.22
2019-05-10T18:58:53.329Z,83.45
2019-05-10T19:01:25.723Z,82.94
2019-05-10T19:03:57.455Z,82.61
2019-05-10T19:06:31.309Z,81.23
2019-05-10T19:09:02.418Z,79.46
2019-05-10T19:11:39.127Z,79.92
2019-05-10T19:14:09.430Z,80.29
2019-05-10T19:16:41.370Z,79.34
2019-05-10T19:19:13.123Z,78.78
2019-05-10T19:21:44.782Z,79.05
2019-05-10T19:24:16.640Z,78.68
2019-05-10T19:26:48.102Z,78.96
2019-05-10T19:29:19.951Z,78.76
2019-05-10T19:31:51.497Z,78.22
2019-05-10T19:34:22.947Z,77.46
2019-05-10T19:36:54.709Z,77.73
2019-05-10T19:39:26.461Z,78.57
2019-05-10T19:42:03.858Z,77.94
2019-05-10T19:44:34.759Z,78.05
2019-05-10T19:47:04.807Z,78.61
2019-05-10T19:49:37.591Z,77.83
2019-05-10T19:52:09.555Z,79.42
2019-05-10T19:54:41.103Z,80.86
2019-05-10T19:57:16.189Z,81.06
2019-05-10T19:59:48.704Z,81.80
2019-05-10T20:02:19.674Z,81.79
2019-05-10T20:04:51.212Z,82.65
2019-05-10T20:07:23.175Z,83.08
2019-05-10T20:09:55.028Z,83.19
2019-05-10T20:12:26.884Z,83.86
2019-05-10T20:14:57.652Z,83.66
2019-05-10T20:17:29.075Z,83.88
2019-05-10T20:20:00.827Z,83.64
2019-05-10T20:22:36.079Z,84.07
2019-05-10T20:25:08.950Z,84.10
2019-05-10T20:27:40.402Z,83.87
2019-05-10T20:30:12.363Z,84.31
2019-05-10T20:32:43.824Z,84.32
2019-05-10T20:35:15.362Z,85.62
2019-05-10T20:38:00.817Z,85.42
2019-05-10T20:40:20.422Z,85.66
2019-05-10T20:42:51.864Z,85.09
2019-05-10T20:45:23.633Z,84.82
2019-05-10T20:47:55.276Z,85.26
2019-05-10T20:50:27.036Z,85.33
2019-05-10T20:52:59.099Z,85.01
2019-05-10T20:55:30.660Z,85.11
2019-05-10T20:58:03.512Z,86.02
2019-05-10T21:00:34.992Z,85.30
2019-05-10T21:03:07.351Z,85.66
2019-05-10T21:05:39.833Z,86.38
2019-05-10T21:08:17.143Z,87.33
2019-05-10T21:10:44.782Z,86.96
2019-05-10T21:13:16.636Z,87.06
2019-05-10T21:15:50.445Z,87.91
2019-05-10T21:18:21.906Z,87.93
2019-05-10T21:20:53.665Z,87.63
2019-05-10T21:23:25.408Z,87.60
2019-05-10T21:25:57.273Z,88.21
2019-05-10T21:28:28.919Z,87.90
2019-05-10T21:31:00.717Z,87.42
2019-05-10T21:33:32.541Z,87.83
2019-05-10T21:36:03.215Z,88.19
2019-05-10T21:38:34.417Z,87.80
2019-05-10T21:41:06.072Z,87.55
2019-05-10T21:43:37.933Z,86.73
2019-05-10T21:46:08.697Z,87.23
2019-05-10T21:48:39.809Z,86.77
2019-05-10T21:51:11.357Z,86.00
2019-05-10T21:53:43.524Z,85.00
2019-05-10T21:56:14.972Z,85.14
2019-05-10T21:58:46.531Z,85.01
2019-05-10T22:01:18.903Z,84.82
2019-05-10T22:03:50.247Z,84.74
2019-05-10T22:06:21.809Z,84.26
2019-05-10T22:08:53.354Z,84.19
2019-05-10T22:11:25.418Z,84.82
2019-05-10T22:13:56.870Z,84.46
2019-05-10T22:16:28.527Z,84.46
2019-05-10T22:19:02.087Z,83.52
2019-05-10T22:21:33.580Z,82.50
2019-05-10T22:24:05.428Z,78.28
2019-05-10T22:26:37.189Z,77.73
2019-05-10T22:29:09.055Z,76.63
2019-05-10T22:31:40.498Z,76.72
2019-05-10T22:34:11.949Z,74.89
2019-05-10T22:36:43.718Z,74.71
2019-05-10T22:39:14.470Z,74.23
2019-05-10T22:41:45.688Z,73.75
2019-05-10T22:44:17.548Z,74.40
2019-05-10T22:46:49.401Z,73.99
2019-05-10T22:49:20.952Z,74.15
2019-05-10T22:51:52.962Z,74.15
2019-05-10T22:54:24.988Z,74.70
2019-05-10T22:56:56.736Z,75.04
2019-05-10T22:59:28.493Z,75.23
2019-05-10T23:02:01.375Z,76.12
2019-05-10T23:04:32.833Z,77.01
2019-05-10T23:07:04.590Z,76.32
2019-05-10T23:09:36.038Z,77.73
2019-05-10T23:12:07.825Z,77.90
2019-05-10T23:14:39.553Z,76.66
2019-05-10T23:17:11.414Z,76.44
2019-05-10T23:19:43.270Z,76.01
2019-05-10T23:22:14.823Z,76.29
2019-05-10T23:24:46.384Z,77.73
2019-05-10T23:27:18.034Z,76.74
2019-05-10T23:29:49.685Z,77.19
2019-05-10T23:32:21.644Z,77.35
2019-05-10T23:34:53.303Z,77.09
2019-05-10T23:37:24.961Z,77.01
2019-05-10T23:39:56.718Z,77.70
2019-05-10T23:42:28.372Z,77.51
2019-05-10T23:44:59.927Z,77.45
2019-05-10T23:47:31.682Z,77.87
2019-05-10T23:50:02.653Z,77.64
2019-05-10T23:52:34.161Z,78.09
2019-05-10T23:55:06.855Z,78.85
2019-05-10T23:57:38.317Z,78.58
